createdAt,value
2018-07-26T00:00:55.382Z,10.67
2018-07-26T00:02:59.948Z,10.17
2018-07-26T00:05:04.929Z,11.10
2018-07-26T00:07:10.710Z,10.23
2018-07-26T00:09:15.248Z,10.60
2018-07-26T00:11:26.367Z,10.73
2018-07-26T00:13:31.113Z,10.90
2018-07-26T00:15:39.608Z,10.73
2018-07-26T00:17:46.629Z,11.00
2018-07-26T00:19:51.331Z,10.20
2018-07-26T00:21:55.960Z,10.13
2018-07-26T00:24:02.554Z,10.60
2018-07-26T00:26:07.282Z,10.77
2018-07-26T00:28:11.970Z,11.03
2018-07-26T00:30:16.522Z,11.20
2018-07-26T00:32:21.148Z,11.27
2018-07-26T00:34:25.712Z,10.80
2018-07-26T00:36:32.559Z,10.00
2018-07-26T00:38:37.143Z,10.20
2018-07-26T00:40:41.868Z,9.80
2018-07-26T00:42:46.402Z,10.63
2018-07-26T00:44:52.924Z,11.17
2018-07-26T00:46:57.450Z,10.27
2018-07-26T00:49:03.268Z,10.10
2018-07-26T00:51:07.950Z,10.67
2018-07-26T00:53:12.637Z,11.10
2018-07-26T00:55:18.698Z,10.60
2018-07-26T00:57:23.373Z,10.57
2018-07-26T00:59:28.134Z,11.77
2018-07-26T01:01:32.762Z,10.80
2018-07-26T01:03:39.742Z,11.13
2018-07-26T01:05:44.477Z,11.37
2018-07-26T01:07:49.133Z,9.90
2018-07-26T01:09:54.852Z,10.93
2018-07-26T01:12:07.842Z,11.60
2018-07-26T01:14:12.371Z,10.70
2018-07-26T01:16:17.952Z,10.63
2018-07-26T01:18:22.475Z,10.00
2018-07-26T01:20:30.248Z,10.77
2018-07-26T01:22:34.912Z,10.17
2018-07-26T01:24:44.035Z,10.70
2018-07-26T01:26:48.555Z,10.50
2018-07-26T01:28:54.517Z,11.00
2018-07-26T01:30:59.067Z,10.50
2018-07-26T01:33:03.943Z,11.93
2018-07-26T01:35:08.560Z,10.30
2018-07-26T01:37:13.236Z,9.50
2018-07-26T01:39:17.926Z,11.07
2018-07-26T01:41:22.627Z,10.17
2018-07-26T01:44:03.604Z,10.00
2018-07-26T01:46:08.129Z,9.20
2018-07-26T01:48:12.750Z,10.13
2018-07-26T01:50:17.334Z,9.40
2018-07-26T01:52:24.373Z,9.83
2018-07-26T01:54:28.940Z,8.43
2018-07-26T01:56:34.481Z,9.30
2018-07-26T01:58:39.085Z,8.70
2018-07-26T02:00:43.771Z,9.27
2018-07-26T02:02:49.088Z,10.43
2018-07-26T02:04:53.921Z,8.83
2018-07-26T02:06:58.651Z,8.53
2018-07-26T02:09:06.423Z,8.67
2018-07-26T02:11:11.136Z,10.17
2018-07-26T02:13:15.479Z,9.60
2018-07-26T02:15:19.884Z,10.03
2018-07-26T02:17:25.622Z,9.63
2018-07-26T02:19:30.227Z,11.10
2018-07-26T02:21:34.907Z,9.77
2018-07-26T02:23:39.510Z,10.83
2018-07-26T02:25:44.394Z,10.30
2018-07-26T02:27:49.215Z,10.33
2018-07-26T02:29:54.385Z,10.67
2018-07-26T02:31:59.179Z,9.87
2018-07-26T02:34:03.966Z,9.03
2018-07-26T02:36:08.565Z,9.13
2018-07-26T02:38:13.184Z,8.60
2018-07-26T02:40:17.873Z,8.40
2018-07-26T02:42:22.703Z,8.77
2018-07-26T02:44:29.900Z,7.90
2018-07-26T02:46:38.821Z,8.63
2018-07-26T02:48:43.453Z,8.67
2018-07-26T02:50:48.199Z,9.07
2018-07-26T02:52:54.570Z,9.07
2018-07-26T02:55:00.543Z,9.07
2018-07-26T02:57:07.390Z,9.97
2018-07-26T02:59:12.998Z,9.50
2018-07-26T03:01:18.553Z,9.00
2018-07-26T03:03:23.358Z,8.90
2018-07-26T03:05:28.649Z,8.20
2018-07-26T03:07:33.401Z,8.77
2018-07-26T03:09:38.521Z,8.90
2018-07-26T03:11:43.308Z,8.47
2018-07-26T03:13:47.862Z,8.40
2018-07-26T03:15:52.564Z,8.13
2018-07-26T03:17:58.616Z,8.13
2018-07-26T03:20:05.366Z,8.97
2018-07-26T03:22:14.797Z,8.90
2018-07-26T03:24:19.357Z,8.63
2018-07-26T03:26:24.154Z,9.00
2018-07-26T03:28:29.650Z,7.97
2018-07-26T03:30:34.238Z,8.87
2018-07-26T03:32:38.957Z,8.80
2018-07-26T03:34:43.471Z,8.00
2018-07-26T03:36:48.128Z,8.50
2018-07-26T03:38:52.258Z,7.80
2018-07-26T03:40:59.329Z,7.53
2018-07-26T03:43:03.858Z,7.90
2018-07-26T03:45:09.938Z,8.03
2018-07-26T03:47:14.658Z,8.27
2018-07-26T03:49:26.153Z,7.43
2018-07-26T03:51:31.143Z,7.90
2018-07-26T03:53:36.007Z,8.37
2018-07-26T03:55:41.093Z,7.87
2018-07-26T03:57:45.584Z,7.53
2018-07-26T03:59:51.692Z,8.33
2018-07-26T04:01:56.326Z,8.40
2018-07-26T04:04:00.877Z,8.83
2018-07-26T04:08:18.824Z,10.50
2018-07-26T04:10:23.769Z,9.70
2018-07-26T04:12:28.409Z,11.30
2018-07-26T04:14:33.409Z,10.37
2018-07-26T04:16:38.038Z,10.13
2018-07-26T04:18:42.926Z,9.30
2018-07-26T04:20:49.147Z,8.83
2018-07-26T04:22:55.526Z,9.10
2018-07-26T04:25:00.064Z,8.90
2018-07-26T04:27:04.663Z,9.23
2018-07-26T04:29:09.711Z,8.80
2018-07-26T04:31:14.369Z,8.87
2018-07-26T04:33:18.954Z,9.00
2018-07-26T04:35:24.563Z,9.47
2018-07-26T04:37:30.555Z,9.70
2018-07-26T04:39:37.662Z,9.10
2018-07-26T04:41:42.800Z,9.33
2018-07-26T04:43:47.479Z,8.87
2018-07-26T04:45:53.545Z,7.80
2018-07-26T04:47:58.206Z,8.40
2018-07-26T04:50:02.881Z,9.30
2018-07-26T04:52:11.935Z,8.03
2018-07-26T04:54:16.905Z,9.23
2018-07-26T04:56:21.608Z,9.27
2018-07-26T04:58:26.426Z,9.80
2018-07-26T05:00:35.110Z,9.33
2018-07-26T05:02:41.848Z,8.90
2018-07-26T05:04:46.605Z,8.87
2018-07-26T05:06:51.827Z,9.83
2018-07-26T05:08:56.795Z,9.60
2018-07-26T05:11:02.889Z,9.60
2018-07-26T05:13:07.564Z,9.87
2018-07-26T05:15:12.092Z,9.63
2018-07-26T05:17:16.818Z,10.47
2018-07-26T05:19:21.356Z,9.83
2018-07-26T05:21:26.128Z,9.97
2018-07-26T05:23:30.785Z,9.30
2018-07-26T05:25:35.690Z,10.97
2018-07-26T05:27:39.932Z,9.10
2018-07-26T05:29:44.512Z,9.50
2018-07-26T05:31:49.040Z,8.40
2018-07-26T05:33:54.134Z,10.83
2018-07-26T05:36:00.102Z,10.43
2018-07-26T05:38:04.980Z,10.47
2018-07-26T05:40:09.795Z,10.20
2018-07-26T05:42:14.499Z,9.83
2018-07-26T05:44:21.351Z,8.50
2018-07-26T05:46:28.343Z,8.17
2018-07-26T05:48:33.890Z,8.10
2018-07-26T05:50:38.575Z,8.27
2018-07-26T05:52:43.464Z,7.97
2018-07-26T05:54:52.853Z,7.20
2018-07-26T05:56:57.413Z,6.97
2018-07-26T05:59:02.356Z,6.80
2018-07-26T06:01:10.323Z,7.17
2018-07-26T06:03:16.056Z,7.13
2018-07-26T06:05:20.637Z,6.00
2018-07-26T06:07:26.298Z,6.30
2018-07-26T06:09:36.043Z,6.03
2018-07-26T06:11:41.385Z,5.63
2018-07-26T06:13:46.968Z,6.57
2018-07-26T06:15:51.789Z,5.57
2018-07-26T06:17:57.505Z,6.13
2018-07-26T06:20:02.126Z,6.13
2018-07-26T06:22:08.082Z,5.40
2018-07-26T06:24:16.126Z,5.80
2018-07-26T06:26:20.979Z,5.57
2018-07-26T06:28:25.540Z,5.40
2018-07-26T06:30:31.208Z,4.93
2018-07-26T06:32:37.269Z,4.63
2018-07-26T06:34:47.880Z,4.67
2018-07-26T06:36:52.434Z,4.70
2018-07-26T06:38:57.385Z,5.20
2018-07-26T06:41:05.125Z,5.47
2018-07-26T06:43:14.158Z,5.10
2018-07-26T06:45:18.732Z,4.80
2018-07-26T06:47:23.437Z,4.60
2018-07-26T06:49:32.652Z,4.67
2018-07-26T06:51:38.853Z,4.37
2018-07-26T06:53:43.498Z,4.10
2018-07-26T06:55:48.029Z,4.10
2018-07-26T06:57:57.727Z,4.30
2018-07-26T07:00:03.789Z,4.80
2018-07-26T07:02:08.807Z,5.17
2018-07-26T07:04:13.343Z,4.60
2018-07-26T07:06:21.752Z,4.77
2018-07-26T07:08:32.123Z,4.63
2018-07-26T07:10:40.741Z,4.90
2018-07-26T07:12:45.446Z,4.50
2018-07-26T07:14:52.605Z,4.70
2018-07-26T07:17:02.413Z,4.30
2018-07-26T07:19:08.230Z,4.90
2018-07-26T07:21:13.396Z,4.53
2018-07-26T07:23:17.945Z,3.97
2018-07-26T07:25:22.758Z,3.97
2018-07-26T07:27:28.031Z,4.60
2018-07-26T07:29:32.752Z,4.87
2018-07-26T07:31:37.239Z,4.17
2018-07-26T07:33:41.880Z,4.37
2018-07-26T07:35:48.684Z,4.50
2018-07-26T07:37:54.696Z,4.60
2018-07-26T07:39:59.410Z,5.43
2018-07-26T07:42:04.224Z,4.63
2018-07-26T07:44:10.853Z,4.60
2018-07-26T07:46:15.469Z,4.80
2018-07-26T07:48:20.057Z,4.70
2018-07-26T07:50:24.835Z,4.80
2018-07-26T07:52:35.034Z,4.40
2018-07-26T07:54:39.549Z,4.70
2018-07-26T07:58:54.853Z,4.60
2018-07-26T08:00:59.708Z,5.10
2018-07-26T08:03:05.593Z,4.20
2018-07-26T08:05:12.532Z,4.90
2018-07-26T08:07:17.250Z,4.87
2018-07-26T08:09:22.128Z,4.30
2018-07-26T08:11:26.834Z,4.07
2018-07-26T08:13:37.423Z,4.70
2018-07-26T08:15:42.176Z,4.60
2018-07-26T08:17:47.028Z,4.67
2018-07-26T08:19:51.567Z,4.90
2018-07-26T08:21:57.734Z,4.93
2018-07-26T08:24:03.145Z,4.50
2018-07-26T08:26:07.953Z,4.53
2018-07-26T08:28:12.215Z,5.00
2018-07-26T08:30:16.278Z,4.80
2018-07-26T08:32:23.829Z,4.47
2018-07-26T08:34:28.349Z,4.27
2018-07-26T08:36:33.317Z,4.77
2018-07-26T08:38:37.993Z,4.23
2018-07-26T08:40:42.713Z,5.03
2018-07-26T08:47:58.763Z,4.70
2018-07-26T08:50:06.832Z,4.73
2018-07-26T08:52:11.482Z,4.13
2018-07-26T08:54:17.015Z,4.67
2018-07-26T08:56:21.904Z,4.20
2018-07-26T08:58:27.493Z,4.40
2018-07-26T09:00:37.666Z,4.67
2018-07-26T09:02:42.499Z,4.33
2018-07-26T09:04:47.660Z,4.27
2018-07-26T09:06:52.450Z,3.67
2018-07-26T09:09:13.272Z,5.10
2018-07-26T09:11:20.363Z,4.40
2018-07-26T09:13:25.301Z,4.20
2018-07-26T09:15:29.730Z,4.10
2018-07-26T09:17:36.646Z,4.17
2018-07-26T09:19:42.851Z,4.20
2018-07-26T09:21:48.884Z,4.40
2018-07-26T09:23:53.506Z,3.77
2018-07-26T09:25:58.094Z,4.00
2018-07-26T09:28:07.984Z,3.80
2018-07-26T09:30:13.116Z,4.00
2018-07-26T09:32:18.039Z,3.50
2018-07-26T09:34:27.237Z,3.60
2018-07-26T09:36:33.907Z,3.00
2018-07-26T09:38:39.065Z,2.97
2018-07-26T09:40:44.000Z,3.57
2018-07-26T09:42:50.035Z,3.50
2018-07-26T09:44:57.965Z,3.73
2018-07-26T09:47:03.012Z,3.33
2018-07-26T09:49:07.643Z,3.90
2018-07-26T09:51:12.243Z,3.33
2018-07-26T09:53:23.321Z,3.90
2018-07-26T09:55:27.809Z,3.50
2018-07-26T09:57:33.011Z,4.10
2018-07-26T09:59:39.713Z,4.17
2018-07-26T10:01:45.031Z,3.60
2018-07-26T10:03:55.684Z,3.70
2018-07-26T10:06:05.584Z,4.10
2018-07-26T10:10:30.446Z,3.80
2018-07-26T10:12:37.169Z,3.57
2018-07-26T10:14:42.671Z,4.10
2018-07-26T10:16:47.774Z,3.50
2018-07-26T10:18:54.701Z,3.30
2018-07-26T10:21:04.648Z,3.43
2018-07-26T10:23:09.852Z,3.43
2018-07-26T10:25:16.197Z,3.73
2018-07-26T10:27:20.813Z,4.27
2018-07-26T10:29:27.209Z,4.10
2018-07-26T10:31:38.179Z,3.43
2018-07-26T10:33:42.931Z,5.20
2018-07-26T10:35:47.524Z,4.07
2018-07-26T10:37:51.988Z,3.40
2018-07-26T10:39:57.515Z,3.37
2018-07-26T10:42:02.531Z,3.00
2018-07-26T10:44:08.126Z,3.67
2018-07-26T10:46:12.673Z,3.27
2018-07-26T10:48:18.522Z,3.40
2018-07-26T10:50:27.460Z,3.20
2018-07-26T10:52:32.611Z,3.93
2018-07-26T10:54:38.914Z,3.80
2018-07-26T10:56:43.424Z,3.63
2018-07-26T10:58:50.459Z,3.13
2018-07-26T11:00:57.008Z,3.00
2018-07-26T11:03:01.609Z,2.93
2018-07-26T11:05:07.978Z,3.10
2018-07-26T11:07:12.397Z,2.90
2018-07-26T11:09:24.292Z,3.03
2018-07-26T11:11:29.621Z,3.33
2018-07-26T11:13:34.306Z,3.47
2018-07-26T11:15:43.390Z,3.57
2018-07-26T11:17:48.754Z,3.60
2018-07-26T11:19:53.290Z,2.80
2018-07-26T11:21:58.606Z,3.07
2018-07-26T11:24:08.996Z,3.70
2018-07-26T11:26:16.924Z,3.00
2018-07-26T11:28:23.288Z,3.20
2018-07-26T11:30:28.625Z,3.03
2018-07-26T11:32:38.673Z,3.40
2018-07-26T11:34:43.229Z,3.23
2018-07-26T11:36:48.446Z,2.80
2018-07-26T11:38:54.647Z,3.20
2018-07-26T11:41:06.566Z,3.20
2018-07-26T11:43:11.084Z,3.40
2018-07-26T11:45:18.145Z,3.00
2018-07-26T11:47:22.795Z,3.13
2018-07-26T11:49:33.381Z,3.13
2018-07-26T11:51:38.684Z,3.00
2018-07-26T11:53:43.355Z,3.13
2018-07-26T11:55:47.902Z,2.90
2018-07-26T11:57:59.461Z,3.30
2018-07-26T12:00:12.236Z,3.63
2018-07-26T12:02:21.051Z,3.30
2018-07-26T12:04:25.925Z,3.70
2018-07-26T12:06:31.565Z,3.70
2018-07-26T12:08:36.537Z,3.30
2018-07-26T12:10:42.513Z,2.83
2018-07-26T12:12:55.312Z,2.97
2018-07-26T12:15:00.049Z,3.00
2018-07-26T12:17:08.811Z,3.33
2018-07-26T12:19:20.075Z,3.77
2018-07-26T12:21:24.669Z,2.63
2018-07-26T12:23:29.382Z,2.93
2018-07-26T12:25:34.489Z,3.00
2018-07-26T12:27:47.995Z,2.90
2018-07-26T12:29:53.089Z,3.00
2018-07-26T12:31:57.961Z,3.03
2018-07-26T12:34:07.228Z,3.00
2018-07-26T12:36:11.933Z,3.17
2018-07-26T12:38:16.497Z,3.07
2018-07-26T12:40:21.490Z,2.70
2018-07-26T12:42:33.859Z,3.17
2018-07-26T12:44:38.599Z,2.93
2018-07-26T12:46:43.339Z,2.93
2018-07-26T12:48:48.006Z,3.47
2018-07-26T12:51:00.287Z,3.40
2018-07-26T12:53:05.218Z,3.17
2018-07-26T12:55:10.131Z,3.50
2018-07-26T12:57:17.713Z,2.93
2018-07-26T12:59:28.925Z,3.03
2018-07-26T13:01:33.794Z,3.83
2018-07-26T13:03:42.627Z,3.80
2018-07-26T13:05:48.075Z,3.30
2018-07-26T13:07:52.896Z,3.20
2018-07-26T13:09:58.573Z,3.20
2018-07-26T13:12:05.076Z,3.53
2018-07-26T13:14:09.848Z,3.70
2018-07-26T13:16:15.524Z,3.53
2018-07-26T13:18:23.721Z,3.63
2018-07-26T13:20:30.116Z,3.73
2018-07-26T13:22:34.634Z,4.37
2018-07-26T13:24:40.651Z,3.90
2018-07-26T13:26:52.943Z,3.97
2018-07-26T13:28:57.518Z,3.63
2018-07-26T13:31:02.744Z,3.73
2018-07-26T13:33:10.415Z,3.50
2018-07-26T13:35:16.990Z,3.20
2018-07-26T13:37:21.268Z,3.17
2018-07-26T13:39:26.060Z,3.13
2018-07-26T13:41:36.697Z,3.30
2018-07-26T13:43:43.079Z,3.40
2018-07-26T13:45:47.755Z,3.67
2018-07-26T13:47:53.077Z,3.10
2018-07-26T13:50:01.250Z,3.30
2018-07-26T13:52:21.877Z,3.47
2018-07-26T13:54:35.892Z,3.37
2018-07-26T13:56:40.402Z,3.47
2018-07-26T13:58:45.369Z,3.20
2018-07-26T14:00:49.778Z,3.10
2018-07-26T14:02:55.400Z,3.30
2018-07-26T14:05:00.476Z,3.53
2018-07-26T14:07:06.040Z,3.73
2018-07-26T14:09:17.308Z,3.23
2018-07-26T14:11:25.011Z,3.10
2018-07-26T14:13:29.702Z,3.20
2018-07-26T14:15:34.316Z,3.40
2018-07-26T14:17:40.084Z,2.80
2018-07-26T14:19:45.405Z,2.97
2018-07-26T14:21:50.669Z,2.80
2018-07-26T14:24:03.789Z,3.00
2018-07-26T14:26:10.355Z,2.80
2018-07-26T14:28:14.523Z,3.10
2018-07-26T14:30:20.375Z,3.20
2018-07-26T14:32:25.214Z,3.20
2018-07-26T14:34:33.718Z,2.67
2018-07-26T14:36:39.235Z,2.60
2018-07-26T14:38:43.618Z,2.70
2018-07-26T14:40:48.095Z,3.00
2018-07-26T14:43:00.408Z,2.97
2018-07-26T14:45:05.790Z,3.00
2018-07-26T14:47:10.384Z,2.90
2018-07-26T14:49:14.811Z,3.10
2018-07-26T14:51:30.596Z,3.40
2018-07-26T14:53:35.060Z,3.63
2018-07-26T14:55:39.511Z,3.07
2018-07-26T14:57:44.022Z,2.93
2018-07-26T14:59:54.792Z,3.00
2018-07-26T15:01:59.396Z,2.30
2018-07-26T15:04:07.823Z,2.20
2018-07-26T15:06:13.039Z,2.10
2018-07-26T15:08:22.381Z,2.50
2018-07-26T15:10:26.995Z,2.50
2018-07-26T15:12:33.802Z,2.40
2018-07-26T15:14:38.687Z,2.53
2018-07-26T15:16:50.062Z,3.07
2018-07-26T15:18:54.818Z,2.33
2018-07-26T15:20:59.598Z,2.50
2018-07-26T15:23:11.056Z,2.50
2018-07-26T15:25:24.319Z,2.33
2018-07-26T15:27:28.840Z,3.17
2018-07-26T15:29:33.548Z,2.53
2018-07-26T15:31:44.648Z,2.07
2018-07-26T15:33:50.818Z,2.17
2018-07-26T15:35:56.341Z,2.30
2018-07-26T15:38:00.881Z,1.97
2018-07-26T15:40:10.761Z,2.27
2018-07-26T15:42:19.326Z,2.10
2018-07-26T15:44:24.028Z,1.70
2018-07-26T15:46:31.632Z,2.17
2018-07-26T15:48:36.595Z,2.50
2018-07-26T15:50:41.164Z,1.97
2018-07-26T15:52:45.634Z,2.17
2018-07-26T15:54:51.778Z,2.10
2018-07-26T15:56:56.272Z,2.43
2018-07-26T15:59:01.642Z,2.40
2018-07-26T16:01:06.172Z,2.10
2018-07-26T16:03:10.778Z,1.60
2018-07-26T16:05:18.609Z,2.10
2018-07-26T16:07:26.857Z,2.50
2018-07-26T16:09:31.416Z,2.20
2018-07-26T16:11:37.827Z,2.07
2018-07-26T16:13:42.726Z,2.70
2018-07-26T16:15:51.979Z,2.40
2018-07-26T16:17:56.423Z,2.07
2018-07-26T16:20:02.338Z,2.40
2018-07-26T16:22:12.739Z,1.77
2018-07-26T16:24:21.519Z,1.87
2018-07-26T16:26:26.140Z,2.37
2018-07-26T16:28:31.034Z,2.30
2018-07-26T16:30:39.131Z,2.13
2018-07-26T16:32:47.457Z,2.20
2018-07-26T16:34:57.848Z,2.33
2018-07-26T16:37:02.557Z,2.13
2018-07-26T16:39:09.413Z,2.20
2018-07-26T16:41:13.894Z,2.10
2018-07-26T16:43:18.921Z,2.40
2018-07-26T16:45:23.411Z,2.43
2018-07-26T16:47:29.147Z,3.50
2018-07-26T16:51:48.931Z,2.13
2018-07-26T16:53:57.459Z,1.90
2018-07-26T16:56:02.043Z,2.17
2018-07-26T16:58:16.096Z,2.60
2018-07-26T17:00:20.585Z,5.60
2018-07-26T17:02:26.269Z,9.63
2018-07-26T17:04:31.487Z,5.37
2018-07-26T17:06:38.688Z,2.37
2018-07-26T17:08:43.141Z,2.37
2018-07-26T17:10:48.371Z,2.70
2018-07-26T17:12:53.222Z,2.33
2018-07-26T17:15:08.926Z,2.30
2018-07-26T17:17:13.593Z,2.67
2018-07-26T17:19:18.320Z,2.37
2018-07-26T17:21:22.738Z,2.37
2018-07-26T17:23:32.037Z,2.30
2018-07-26T17:25:36.537Z,2.13
2018-07-26T17:27:41.428Z,2.80
2018-07-26T17:29:45.837Z,3.37
2018-07-26T17:31:58.088Z,2.77
2018-07-26T17:34:06.957Z,3.10
2018-07-26T17:36:11.697Z,2.30
2018-07-26T17:38:16.907Z,2.57
2018-07-26T17:40:27.755Z,3.20
2018-07-26T17:42:33.810Z,2.90
2018-07-26T17:44:38.864Z,2.70
2018-07-26T17:46:43.406Z,2.70
2018-07-26T17:48:52.394Z,2.43
2018-07-26T17:50:57.337Z,2.93
2018-07-26T17:53:01.889Z,2.57
2018-07-26T17:55:06.612Z,2.83
2018-07-26T17:57:12.915Z,4.10
2018-07-26T17:59:18.084Z,2.70
2018-07-26T18:01:22.584Z,3.50
2018-07-26T18:03:29.218Z,3.60
2018-07-26T18:05:48.348Z,3.17
2018-07-26T18:08:07.004Z,2.63
2018-07-26T18:10:11.497Z,2.60
2018-07-26T18:12:16.352Z,2.60
2018-07-26T18:14:21.151Z,2.60
2018-07-26T18:16:34.566Z,2.77
2018-07-26T18:18:39.090Z,2.57
2018-07-26T18:20:43.720Z,2.50
2018-07-26T18:22:48.250Z,3.10
2018-07-26T18:25:07.903Z,2.60
2018-07-26T18:27:12.517Z,2.50
2018-07-26T18:29:18.556Z,4.97
2018-07-26T18:31:23.316Z,3.60
2018-07-26T18:33:28.648Z,4.10
2018-07-26T18:35:33.362Z,3.63
2018-07-26T18:37:38.131Z,3.17
2018-07-26T18:39:42.712Z,2.67
2018-07-26T18:41:47.326Z,2.93
2018-07-26T18:43:53.579Z,2.80
2018-07-26T18:45:58.564Z,2.97
2018-07-26T18:48:03.173Z,3.10
2018-07-26T18:50:09.358Z,2.73
2018-07-26T18:52:15.253Z,2.43
2018-07-26T18:54:21.217Z,3.70
2018-07-26T18:56:25.999Z,2.90
2018-07-26T18:58:30.665Z,3.30
2018-07-26T19:00:41.040Z,2.80
2018-07-26T19:02:45.595Z,3.73
2018-07-26T19:04:51.059Z,2.97
2018-07-26T19:06:55.939Z,2.90
2018-07-26T19:09:02.963Z,3.00
2018-07-26T19:11:07.689Z,2.80
2018-07-26T19:13:14.252Z,2.63
2018-07-26T19:15:19.324Z,2.73
2018-07-26T19:17:39.764Z,2.93
2018-07-26T19:19:44.569Z,3.03
2018-07-26T19:21:49.680Z,2.83
2018-07-26T19:23:59.883Z,3.17
2018-07-26T19:26:05.082Z,5.70
2018-07-26T19:28:11.692Z,5.00
2018-07-26T19:30:16.553Z,4.83
2018-07-26T19:32:23.033Z,5.57
2018-07-26T19:34:30.634Z,3.83
2018-07-26T19:36:37.406Z,3.70
2018-07-26T19:38:42.158Z,3.10
2018-07-26T19:40:46.867Z,3.13
2018-07-26T19:42:51.217Z,2.87
2018-07-26T19:45:07.971Z,2.90
2018-07-26T19:47:12.640Z,3.20
2018-07-26T19:49:17.947Z,3.40
2018-07-26T19:51:22.489Z,3.10
2018-07-26T19:53:28.617Z,3.03
2018-07-26T19:55:33.510Z,3.10
2018-07-26T19:57:39.126Z,3.10
2018-07-26T19:59:43.636Z,3.47
2018-07-26T20:01:48.598Z,2.77
2018-07-26T20:03:56.355Z,3.10
2018-07-26T20:06:03.801Z,3.10
2018-07-26T20:08:09.070Z,3.00
2018-07-26T20:10:14.013Z,3.40
2018-07-26T20:12:24.373Z,3.33
2018-07-26T20:14:30.472Z,3.30
2018-07-26T20:16:34.938Z,3.30
2018-07-26T20:18:40.574Z,3.00
2018-07-26T20:20:47.364Z,3.23
2018-07-26T20:22:55.065Z,3.30
2018-07-26T20:25:00.097Z,3.50
2018-07-26T20:27:05.271Z,3.40
2018-07-26T20:29:10.919Z,3.10
2018-07-26T20:31:16.519Z,3.03
2018-07-26T20:33:21.047Z,3.43
2018-07-26T20:35:25.521Z,3.60
2018-07-26T20:37:31.934Z,3.13
2018-07-26T20:39:38.276Z,3.27
2018-07-26T20:41:42.755Z,3.80
2018-07-26T20:43:48.120Z,3.63
2018-07-26T20:45:53.975Z,3.10
2018-07-26T20:47:59.556Z,3.03
2018-07-26T20:50:04.906Z,3.50
2018-07-26T20:52:09.100Z,3.20
2018-07-26T20:54:13.497Z,4.07
2018-07-26T20:56:17.902Z,3.40
2018-07-26T20:58:24.515Z,3.33
2018-07-26T21:00:34.313Z,3.50
2018-07-26T21:02:39.820Z,4.00
2018-07-26T21:04:44.678Z,3.20
2018-07-26T21:06:49.198Z,3.47
2018-07-26T21:08:55.716Z,3.20
2018-07-26T21:11:00.360Z,3.47
2018-07-26T21:13:05.056Z,3.63
2018-07-26T21:15:10.394Z,3.70
2018-07-26T21:19:40.078Z,3.23
2018-07-26T21:21:44.948Z,3.60
2018-07-26T21:23:49.957Z,3.63
2018-07-26T21:26:01.420Z,3.80
2018-07-26T21:28:08.131Z,3.80
2018-07-26T21:30:13.527Z,3.53
2018-07-26T21:32:18.886Z,3.23
2018-07-26T21:34:26.596Z,3.30
2018-07-26T21:36:34.416Z,3.60
2018-07-26T21:38:40.843Z,3.33
2018-07-26T21:40:45.462Z,3.67
2018-07-26T21:42:56.506Z,3.73
2018-07-26T21:45:01.394Z,2.90
2018-07-26T21:47:06.032Z,3.73
2018-07-26T21:49:10.878Z,3.53
2018-07-26T21:51:17.077Z,3.60
2018-07-26T21:53:21.672Z,3.47
2018-07-26T21:55:26.228Z,3.60
2018-07-26T21:57:32.337Z,3.63
2018-07-26T21:59:47.919Z,3.87
2018-07-26T22:02:03.868Z,3.70
2018-07-26T22:04:08.605Z,4.00
2018-07-26T22:06:13.124Z,4.10
2018-07-26T22:08:17.877Z,3.60
2018-07-26T22:10:35.457Z,3.83
2018-07-26T22:12:40.304Z,3.73
2018-07-26T22:14:44.905Z,3.70
2018-07-26T22:16:49.311Z,3.90
2018-07-26T22:19:01.560Z,4.17
2018-07-26T22:21:06.969Z,3.37
2018-07-26T22:23:12.700Z,3.20
2018-07-26T22:25:17.272Z,3.90
2018-07-26T22:27:28.543Z,4.80
2018-07-26T22:29:36.335Z,3.70
2018-07-26T22:31:41.712Z,4.00
2018-07-26T22:33:46.267Z,4.10
2018-07-26T22:35:51.340Z,4.07
2018-07-26T22:37:56.409Z,3.90
2018-07-26T22:40:05.312Z,4.13
2018-07-26T22:42:09.838Z,3.67
2018-07-26T22:44:14.520Z,3.83
2018-07-26T22:46:18.941Z,4.30
2018-07-26T22:48:26.116Z,3.50
2018-07-26T22:50:30.676Z,4.10
2018-07-26T22:52:35.687Z,4.03
2018-07-26T22:54:40.075Z,3.80
2018-07-26T22:56:44.524Z,3.80
2018-07-26T22:58:49.863Z,3.80
2018-07-26T23:00:54.643Z,3.70
2018-07-26T23:03:00.346Z,3.73
2018-07-26T23:05:05.236Z,3.83
2018-07-26T23:07:09.679Z,4.07
2018-07-26T23:09:14.154Z,4.00
2018-07-26T23:11:19.576Z,3.90
2018-07-26T23:13:24.148Z,4.13
2018-07-26T23:15:31.005Z,4.10
2018-07-26T23:17:35.945Z,4.37
2018-07-26T23:19:41.404Z,4.40
2018-07-26T23:21:46.495Z,4.37
2018-07-26T23:23:51.052Z,4.67
2018-07-26T23:25:56.601Z,3.90
2018-07-26T23:28:00.980Z,4.00
2018-07-26T23:30:13.635Z,3.90
2018-07-26T23:32:18.120Z,4.63
2018-07-26T23:34:25.395Z,4.63
2018-07-26T23:36:30.090Z,4.27
2018-07-26T23:38:37.390Z,4.77
2018-07-26T23:40:41.842Z,4.43
2018-07-26T23:42:48.798Z,3.90
2018-07-26T23:44:58.980Z,4.17
2018-07-26T23:47:05.977Z,3.80
2018-07-26T23:49:10.581Z,4.40
2018-07-26T23:51:15.080Z,4.00
2018-07-26T23:53:23.521Z,4.67
2018-07-26T23:55:28.859Z,4.00
2018-07-26T23:57:33.385Z,4.20
2018-07-26T23:59:42.859Z,4.37
